<?xml version='1.0' encoding='UTF-8'?><gpx version="1.1" creator="JPX - https://github.com/jenetics/jpx" xmlns="http://www.topografix.com/GPX/1/1"><trk><trkseg><trkpt lat="45.07214546817975" lon="11.818015326327716"><ele>3.9999999999999996</ele><time>2026-04-07T14:27:44Z</time></trkpt><trkpt lat="45.072207089254476" lon="11.817988963561367"><ele>4.0</ele><time>2026-04-07T14:27:46Z</time></trkpt><trkpt lat="45.07227628975805" lon="11.817987088616686"><ele>4.0</ele><time>2026-04-07T14:27:50Z</time></trkpt><trkpt lat="45.0723200420995" lon="11.818059709957245"><ele>4.0</ele><time>2026-04-07T14:27:52Z</time></trkpt><trkpt lat="45.07232475880197" lon="11.818200337041036"><ele>3.9999999999999996</ele><time>2026-04-07T14:27:54Z</time></trkpt><trkpt lat="45.07232950057303" lon="11.818353353736324"><ele>4.0</ele><time>2026-04-07T14:27:56Z</time></trkpt><trkpt lat="45.07233543131579" lon="11.818497703756732"><ele>4.0</ele><time>2026-04-07T14:27:58Z</time></trkpt><trkpt lat="45.07235984976167" lon="11.818611859773595"><ele>4.0</ele><time>2026-04-07T14:28:01Z</time></trkpt><trkpt lat="45.07245224052125" lon="11.81862349752691"><ele>4.0</ele><time>2026-04-07T14:28:03Z</time></trkpt><trkpt lat="45.07256638746787" lon="11.818583724531166"><ele>4.0</ele><time>2026-04-07T14:28:05Z</time></trkpt><trkpt lat="45.07264688950931" lon="11.818558801140412"><ele>4.0</ele><time>2026-04-07T14:28:06Z</time></trkpt><trkpt lat="45.0727283060737" lon="11.81851949411624"><ele>3.8000000000000003</ele><time>2026-04-07T14:28:07Z</time></trkpt><trkpt lat="45.07281244592997" lon="11.818481801313858"><ele>3.6000000000000005</ele><time>2026-04-07T14:28:08Z</time></trkpt><trkpt lat="45.072903564764" lon="11.818439540416923"><ele>3.4</ele><time>2026-04-07T14:28:09Z</time></trkpt><trkpt lat="45.07300306615626" lon="11.818399283379073"><ele>3.2</ele><time>2026-04-07T14:28:10Z</time></trkpt><trkpt lat="45.07310855990445" lon="11.818358715860374"><ele>3.0</ele><time>2026-04-07T14:28:11Z</time></trkpt><trkpt lat="45.07321903674075" lon="11.81831710538791"><ele>3.0</ele><time>2026-04-07T14:28:12Z</time></trkpt><trkpt lat="45.073329941717844" lon="11.818274494998882"><ele>3.0</ele><time>2026-04-07T14:28:13Z</time></trkpt><trkpt lat="45.073439663315604" lon="11.818233079452565"><ele>3.0</ele><time>2026-04-07T14:28:14Z</time></trkpt><trkpt lat="45.07354106679577" lon="11.818190731378499"><ele>3.0</ele><time>2026-04-07T14:28:15Z</time></trkpt><trkpt lat="45.073639218390745" lon="11.818150384177052"><ele>3.0</ele><time>2026-04-07T14:28:16Z</time></trkpt><trkpt lat="45.073734754566715" lon="11.818111730668651"><ele>3.0</ele><time>2026-04-07T14:28:17Z</time></trkpt><trkpt lat="45.07382459343145" lon="11.818075240976842"><ele>3.0</ele><time>2026-04-07T14:28:18Z</time></trkpt><trkpt lat="45.073911680959846" lon="11.81804168612513"><ele>3.0</ele><time>2026-04-07T14:28:19Z</time></trkpt><trkpt lat="45.07399339888534" lon="11.818008925089414"><ele>3.0</ele><time>2026-04-07T14:28:20Z</time></trkpt><trkpt lat="45.07407275878931" lon="11.817977712304625"><ele>3.0</ele><time>2026-04-07T14:28:21Z</time></trkpt><trkpt lat="45.07414631482819" lon="11.817942067977192"><ele>3.0</ele><time>2026-04-07T14:28:22Z</time></trkpt><trkpt lat="45.07421857892279" lon="11.817918597921715"><ele>3.0</ele><time>2026-04-07T14:28:23Z</time></trkpt><trkpt lat="45.0742834875844" lon="11.817882028332237"><ele>3.0</ele><time>2026-04-07T14:28:24Z</time></trkpt><trkpt lat="45.07434019017257" lon="11.817835455305069"><ele>3.0</ele><time>2026-04-07T14:28:25.001Z</time></trkpt><trkpt lat="45.074384325700734" lon="11.817674663198225"><ele>3.0</ele><time>2026-04-07T14:28:27.001Z</time></trkpt><trkpt lat="45.07436741700316" lon="11.817569333442735"><ele>3.0</ele><time>2026-04-07T14:28:28.001Z</time></trkpt><trkpt lat="45.07434931973164" lon="11.817460321303042"><ele>3.0</ele><time>2026-04-07T14:28:29.001Z</time></trkpt><trkpt lat="45.07433640562733" lon="11.817337641227837"><ele>3.0</ele><time>2026-04-07T14:28:30.001Z</time></trkpt><trkpt lat="45.07432037960657" lon="11.817207435940782"><ele>3.0</ele><time>2026-04-07T14:28:31.001Z</time></trkpt><trkpt lat="45.07430449763322" lon="11.817078085588216"><ele>3.0</ele><time>2026-04-07T14:28:32.001Z</time></trkpt><trkpt lat="45.07428869806588" lon="11.816947487835174"><ele>3.0</ele><time>2026-04-07T14:28:33.001Z</time></trkpt><trkpt lat="45.074276406679395" lon="11.816819853313909"><ele>3.0</ele><time>2026-04-07T14:28:34.001Z</time></trkpt><trkpt lat="45.07426391078329" lon="11.81669438174155"><ele>3.1666666666666665</ele><time>2026-04-07T14:28:35.001Z</time></trkpt><trkpt lat="45.07425389726068" lon="11.816572775380312"><ele>3.333333333333333</ele><time>2026-04-07T14:28:36.001Z</time></trkpt><trkpt lat="45.074245423625534" lon="11.81645124358738"><ele>3.5</ele><time>2026-04-07T14:28:37.001Z</time></trkpt><trkpt lat="45.07423341166851" lon="11.816327454151711"><ele>3.6666666666666665</ele><time>2026-04-07T14:28:38.001Z</time></trkpt><trkpt lat="45.07422457864606" lon="11.816200450118792"><ele>3.833333333333333</ele><time>2026-04-07T14:28:39.001Z</time></trkpt><trkpt lat="45.07421170713484" lon="11.81606416588821"><ele>4.0</ele><time>2026-04-07T14:28:40.001Z</time></trkpt><trkpt lat="45.07419666331272" lon="11.81592418185791"><ele>4.2</ele><time>2026-04-07T14:28:41.001Z</time></trkpt><trkpt lat="45.074176369523464" lon="11.815785689631733"><ele>4.4</ele><time>2026-04-07T14:28:42.001Z</time></trkpt><trkpt lat="45.074154961042275" lon="11.815651367039553"><ele>4.6</ele><time>2026-04-07T14:28:43.001Z</time></trkpt><trkpt lat="45.07413429145227" lon="11.815523265000424"><ele>4.8</ele><time>2026-04-07T14:28:44.001Z</time></trkpt><trkpt lat="45.07411163973791" lon="11.815402766101057"><ele>5.0</ele><time>2026-04-07T14:28:45.001Z</time></trkpt><trkpt lat="45.07408230993121" lon="11.815288870454749"><ele>5.0</ele><time>2026-04-07T14:28:46.001Z</time></trkpt><trkpt lat="45.07405556700318" lon="11.815182234693607"><ele>5.0</ele><time>2026-04-07T14:28:47.001Z</time></trkpt><trkpt lat="45.0740246321565" lon="11.815070602030515"><ele>5.0</ele><time>2026-04-07T14:28:48.001Z</time></trkpt><trkpt lat="45.07399333805663" lon="11.814958900059093"><ele>5.0</ele><time>2026-04-07T14:28:49.001Z</time></trkpt><trkpt lat="45.07396635443739" lon="11.814845353954626"><ele>5.0</ele><time>2026-04-07T14:28:50.001Z</time></trkpt><trkpt lat="45.07394491920158" lon="11.814732954580334"><ele>5.0</ele><time>2026-04-07T14:28:51.001Z</time></trkpt><trkpt lat="45.0739257169307" lon="11.814624670733973"><ele>4.833333333333334</ele><time>2026-04-07T14:28:52.001Z</time></trkpt><trkpt lat="45.073909455513736" lon="11.814508179982477"><ele>4.666666666666667</ele><time>2026-04-07T14:28:53.001Z</time></trkpt><trkpt lat="45.07389312539561" lon="11.81439247569779"><ele>4.5</ele><time>2026-04-07T14:28:54.001Z</time></trkpt><trkpt lat="45.07387855352084" lon="11.814278524117583"><ele>4.333333333333333</ele><time>2026-04-07T14:28:55.001Z</time></trkpt><trkpt lat="45.07386243147066" lon="11.814163024766028"><ele>4.166666666666666</ele><time>2026-04-07T14:28:56.001Z</time></trkpt><trkpt lat="45.07384363767157" lon="11.814049480772667"><ele>4.0</ele><time>2026-04-07T14:28:57.001Z</time></trkpt><trkpt lat="45.07382549736342" lon="11.813938353571519"><ele>4.0</ele><time>2026-04-07T14:28:58.001Z</time></trkpt><trkpt lat="45.073807539109495" lon="11.81383243364511"><ele>3.9999999999999996</ele><time>2026-04-07T14:28:59.001Z</time></trkpt><trkpt lat="45.073788466571166" lon="11.813733855628033"><ele>4.0</ele><time>2026-04-07T14:29:00.001Z</time></trkpt><trkpt lat="45.07376993217724" lon="11.813638234848309"><ele>4.0</ele><time>2026-04-07T14:29:01.001Z</time></trkpt><trkpt lat="45.07375882850521" lon="11.81353842493735"><ele>3.9999999999999996</ele><time>2026-04-07T14:29:02.001Z</time></trkpt><trkpt lat="45.07376132848005" lon="11.813429600683783"><ele>4.0</ele><time>2026-04-07T14:29:03.001Z</time></trkpt><trkpt lat="45.073779401195296" lon="11.813316283133963"><ele>4.0</ele><time>2026-04-07T14:29:04.001Z</time></trkpt><trkpt lat="45.073807306099596" lon="11.813206014074227"><ele>3.6666666666666665</ele><time>2026-04-07T14:29:05.001Z</time></trkpt><trkpt lat="45.07383696745647" lon="11.813104016498189"><ele>3.333333333333333</ele><time>2026-04-07T14:29:06.001Z</time></trkpt><trkpt lat="45.07387320386678" lon="11.813011761339897"><ele>3.0</ele><time>2026-04-07T14:29:07.001Z</time></trkpt><trkpt lat="45.07391157035585" lon="11.812926022749725"><ele>2.6666666666666665</ele><time>2026-04-07T14:29:08.001Z</time></trkpt><trkpt lat="45.07394734910363" lon="11.812843412506677"><ele>2.333333333333333</ele><time>2026-04-07T14:29:09.001Z</time></trkpt><trkpt lat="45.073982672879225" lon="11.812764640210572"><ele>2.0</ele><time>2026-04-07T14:29:10.001Z</time></trkpt><trkpt lat="45.074042532754014" lon="11.812629765140112"><ele>1.9999999999999998</ele><time>2026-04-07T14:29:12.001Z</time></trkpt><trkpt lat="45.07409733580532" lon="11.812505489773578"><ele>2.0</ele><time>2026-04-07T14:29:14.001Z</time></trkpt><trkpt lat="45.074139719590484" lon="11.812420273718852"><ele>2.0</ele><time>2026-04-07T14:29:16.001Z</time></trkpt><trkpt lat="45.07417887160951" lon="11.812336033713295"><ele>2.0</ele><time>2026-04-07T14:29:25.998Z</time></trkpt><trkpt lat="45.07423970730099" lon="11.81229116654147"><ele>1.9999999999999998</ele><time>2026-04-07T14:29:30.998Z</time></trkpt><trkpt lat="45.07430121600527" lon="11.81225995067217"><ele>2.0</ele><time>2026-04-07T14:29:32.999Z</time></trkpt><trkpt lat="45.07439955955405" lon="11.812252067390995"><ele>1.9999999999999998</ele><time>2026-04-07T14:29:34.999Z</time></trkpt><trkpt lat="45.07452221350907" lon="11.812278188930929"><ele>2.0</ele><time>2026-04-07T14:29:36.999Z</time></trkpt><trkpt lat="45.074580241650835" lon="11.812332063967247"><ele>2.0</ele><time>2026-04-07T14:29:37.999Z</time></trkpt><trkpt lat="45.07462796619415" lon="11.812407108071543"><ele>2.0</ele><time>2026-04-07T14:29:38.999Z</time></trkpt><trkpt lat="45.07466261345143" lon="11.812494302751917"><ele>1.9999999999999998</ele><time>2026-04-07T14:29:39.999Z</time></trkpt><trkpt lat="45.07468628982715" lon="11.812590716474665"><ele>2.0</ele><time>2026-04-07T14:29:40.999Z</time></trkpt><trkpt lat="45.07469567742583" lon="11.812695005386582"><ele>2.6666666666666665</ele><time>2026-04-07T14:29:41.999Z</time></trkpt><trkpt lat="45.07468402325894" lon="11.812804614601767"><ele>3.333333333333333</ele><time>2026-04-07T14:29:42.999Z</time></trkpt><trkpt lat="45.074660468962115" lon="11.812919791855673"><ele>4.0</ele><time>2026-04-07T14:29:43.999Z</time></trkpt><trkpt lat="45.07463925319663" lon="11.813033360519878"><ele>4.666666666666667</ele><time>2026-04-07T14:29:44.999Z</time></trkpt><trkpt lat="45.074620700537466" lon="11.813158738765384"><ele>5.333333333333333</ele><time>2026-04-07T14:29:45.999Z</time></trkpt><trkpt lat="45.07460068791943" lon="11.813288756536556"><ele>6.0</ele><time>2026-04-07T14:29:46.999Z</time></trkpt><trkpt lat="45.07458283544931" lon="11.813420866148142"><ele>5.8</ele><time>2026-04-07T14:29:47.999Z</time></trkpt><trkpt lat="45.07456313995703" lon="11.813557573796675"><ele>5.6</ele><time>2026-04-07T14:29:48.999Z</time></trkpt><trkpt lat="45.07454276427953" lon="11.813702042499777"><ele>5.4</ele><time>2026-04-07T14:29:49.999Z</time></trkpt><trkpt lat="45.07451885274354" lon="11.813846777596055"><ele>5.2</ele><time>2026-04-07T14:29:50.999Z</time></trkpt><trkpt lat="45.07449955968346" lon="11.81399210195633"><ele>5.0</ele><time>2026-04-07T14:29:52Z</time></trkpt><trkpt lat="45.074474527177934" lon="11.814149963722606"><ele>5.0</ele><time>2026-04-07T14:29:53Z</time></trkpt><trkpt lat="45.07445062527931" lon="11.814314273307591"><ele>5.0</ele><time>2026-04-07T14:29:54Z</time></trkpt><trkpt lat="45.074425506790305" lon="11.814482688652522"><ele>5.0</ele><time>2026-04-07T14:29:55Z</time></trkpt><trkpt lat="45.074403270592526" lon="11.814652842260982"><ele>5.0</ele><time>2026-04-07T14:29:56Z</time></trkpt><trkpt lat="45.07438509361761" lon="11.814819932171464"><ele>5.0</ele><time>2026-04-07T14:29:57Z</time></trkpt><trkpt lat="45.0743714559048" lon="11.814984358232774"><ele>5.0</ele><time>2026-04-07T14:29:58Z</time></trkpt><trkpt lat="45.07436237458861" lon="11.815143642160352"><ele>5.0</ele><time>2026-04-07T14:29:59Z</time></trkpt><trkpt lat="45.074353794581555" lon="11.815310580165557"><ele>5.0</ele><time>2026-04-07T14:30:00Z</time></trkpt><trkpt lat="45.07434898440091" lon="11.81547831451927"><ele>5.0</ele><time>2026-04-07T14:30:01Z</time></trkpt><trkpt lat="45.074344567089916" lon="11.81564876248538"><ele>5.0</ele><time>2026-04-07T14:30:02Z</time></trkpt><trkpt lat="45.074340972308455" lon="11.81582053010416"><ele>5.0</ele><time>2026-04-07T14:30:03Z</time></trkpt><trkpt lat="45.07434176708377" lon="11.815992133102869"><ele>5.0</ele><time>2026-04-07T14:30:04Z</time></trkpt><trkpt lat="45.07434565674072" lon="11.81617245161433"><ele>4.75</ele><time>2026-04-07T14:30:05Z</time></trkpt><trkpt lat="45.07435180728265" lon="11.816350972564251"><ele>4.5</ele><time>2026-04-07T14:30:06Z</time></trkpt><trkpt lat="45.074357442230045" lon="11.816523359597227"><ele>4.25</ele><time>2026-04-07T14:30:07Z</time></trkpt><trkpt lat="45.07436598336776" lon="11.816692422243285"><ele>4.0</ele><time>2026-04-07T14:30:08Z</time></trkpt><trkpt lat="45.07437381966426" lon="11.816856271752034"><ele>3.75</ele><time>2026-04-07T14:30:09Z</time></trkpt><trkpt lat="45.074386796955984" lon="11.817018762248532"><ele>3.5</ele><time>2026-04-07T14:30:10Z</time></trkpt><trkpt lat="45.074403382500485" lon="11.817181670138512"><ele>3.25</ele><time>2026-04-07T14:30:11Z</time></trkpt><trkpt lat="45.07442430144706" lon="11.817346255927813"><ele>3.0</ele><time>2026-04-07T14:30:12Z</time></trkpt><trkpt lat="45.07444841096904" lon="11.81751075371623"><ele>3.25</ele><time>2026-04-07T14:30:13Z</time></trkpt><trkpt lat="45.07447638230103" lon="11.8176740692314"><ele>3.5</ele><time>2026-04-07T14:30:14Z</time></trkpt><trkpt lat="45.07450584150342" lon="11.817840558610644"><ele>3.75</ele><time>2026-04-07T14:30:15Z</time></trkpt><trkpt lat="45.07453681460723" lon="11.817995549369558"><ele>4.0</ele><time>2026-04-07T14:30:16Z</time></trkpt><trkpt lat="45.074563165895974" lon="11.81816072833085"><ele>4.0</ele><time>2026-04-07T14:30:17Z</time></trkpt><trkpt lat="45.074598473886134" lon="11.818321568521025"><ele>4.0</ele><time>2026-04-07T14:30:18Z</time></trkpt><trkpt lat="45.07463485616534" lon="11.818488808827286"><ele>4.0</ele><time>2026-04-07T14:30:19Z</time></trkpt><trkpt lat="45.074666280958326" lon="11.818650344005173"><ele>4.0</ele><time>2026-04-07T14:30:20Z</time></trkpt><trkpt lat="45.07470153994244" lon="11.818806981085778"><ele>4.0</ele><time>2026-04-07T14:30:21Z</time></trkpt><trkpt lat="45.07473451513348" lon="11.818968842561409"><ele>4.0</ele><time>2026-04-07T14:30:22Z</time></trkpt><trkpt lat="45.07476925307285" lon="11.81912623124395"><ele>4.0</ele><time>2026-04-07T14:30:23Z</time></trkpt><trkpt lat="45.07480713623122" lon="11.819277207368069"><ele>4.0</ele><time>2026-04-07T14:30:24Z</time></trkpt><trkpt lat="45.07484547571477" lon="11.819424954349815"><ele>4.0</ele><time>2026-04-07T14:30:25Z</time></trkpt><trkpt lat="45.07488493256583" lon="11.819570685889005"><ele>4.0</ele><time>2026-04-07T14:30:26Z</time></trkpt><trkpt lat="45.07492903449424" lon="11.819722775904298"><ele>4.0</ele><time>2026-04-07T14:30:27Z</time></trkpt><trkpt lat="45.07497050221123" lon="11.819874994871729"><ele>4.0</ele><time>2026-04-07T14:30:28Z</time></trkpt><trkpt lat="45.07501100926813" lon="11.820023912803077"><ele>3.2</ele><time>2026-04-07T14:30:29Z</time></trkpt><trkpt lat="45.075050897724324" lon="11.820167386903101"><ele>2.4000000000000004</ele><time>2026-04-07T14:30:30Z</time></trkpt><trkpt lat="45.07509106814982" lon="11.820299287543813"><ele>1.6</ele><time>2026-04-07T14:30:31.001Z</time></trkpt><trkpt lat="45.07513042292931" lon="11.820431157422282"><ele>0.8</ele><time>2026-04-07T14:30:32.001Z</time></trkpt><trkpt lat="45.07516886352863" lon="11.82056570509511"><ele>0.0</ele><time>2026-04-07T14:30:33.001Z</time></trkpt><trkpt lat="45.0752065713296" lon="11.820693834514225"><ele>0.0</ele><time>2026-04-07T14:30:34.001Z</time></trkpt><trkpt lat="45.075240851529166" lon="11.820818587586905"><ele>0.0</ele><time>2026-04-07T14:30:35.001Z</time></trkpt><trkpt lat="45.07527208973049" lon="11.82093104120589"><ele>0.0</ele><time>2026-04-07T14:30:36.001Z</time></trkpt><trkpt lat="45.075299687937935" lon="11.821036242451708"><ele>0.0</ele><time>2026-04-07T14:30:37.001Z</time></trkpt><trkpt lat="45.07532462289575" lon="11.821132984976803"><ele>0.0</ele><time>2026-04-07T14:30:38.001Z</time></trkpt><trkpt lat="45.07534670049934" lon="11.82122028668442"><ele>0.0</ele><time>2026-04-07T14:30:39.001Z</time></trkpt><trkpt lat="45.075373140292456" lon="11.821385085621344"><ele>0.14285714285714285</ele><time>2026-04-07T14:30:41.001Z</time></trkpt><trkpt lat="45.07536981822585" lon="11.821476536185505"><ele>0.2857142857142857</ele><time>2026-04-07T14:30:42.001Z</time></trkpt><trkpt lat="45.07534991319963" lon="11.82157318618694"><ele>0.42857142857142855</ele><time>2026-04-07T14:30:43.001Z</time></trkpt><trkpt lat="45.075323044330155" lon="11.821666725689562"><ele>0.5714285714285714</ele><time>2026-04-07T14:30:44.001Z</time></trkpt><trkpt lat="45.07530145037916" lon="11.821760036528993"><ele>0.7142857142857142</ele><time>2026-04-07T14:30:45.001Z</time></trkpt><trkpt lat="45.07530729752281" lon="11.82185471609764"><ele>0.8571428571428571</ele><time>2026-04-07T14:30:46.001Z</time></trkpt><trkpt lat="45.07533789731325" lon="11.821940299686611"><ele>1.0</ele><time>2026-04-07T14:30:47.001Z</time></trkpt><trkpt lat="45.07539212537433" lon="11.822002148680992"><ele>0.9999999999999999</ele><time>2026-04-07T14:30:48.001Z</time></trkpt><trkpt lat="45.075456363713435" lon="11.822034012366771"><ele>1.0</ele><time>2026-04-07T14:30:49.001Z</time></trkpt><trkpt lat="45.07553111913135" lon="11.822016171557635"><ele>1.0</ele><time>2026-04-07T14:30:50.001Z</time></trkpt><trkpt lat="45.075600254104906" lon="11.82197410586444"><ele>1.0</ele><time>2026-04-07T14:30:51.001Z</time></trkpt><trkpt lat="45.07566652701655" lon="11.821947923979243"><ele>0.9999999999999999</ele><time>2026-04-07T14:30:52.001Z</time></trkpt><trkpt lat="45.075793406297265" lon="11.822004751879602"><ele>1.0</ele><time>2026-04-07T14:30:54.001Z</time></trkpt><trkpt lat="45.075844638386144" lon="11.822095928461064"><ele>1.4</ele><time>2026-04-07T14:30:55.001Z</time></trkpt><trkpt lat="45.07586951961733" lon="11.822210968988148"><ele>1.8</ele><time>2026-04-07T14:30:56.001Z</time></trkpt><trkpt lat="45.07590179818793" lon="11.822330141038298"><ele>2.1999999999999997</ele><time>2026-04-07T14:30:57.001Z</time></trkpt><trkpt lat="45.075949477821084" lon="11.822449182962975"><ele>2.6</ele><time>2026-04-07T14:30:58.001Z</time></trkpt><trkpt lat="45.07600877558736" lon="11.82255591511968"><ele>3.0</ele><time>2026-04-07T14:30:59.001Z</time></trkpt><trkpt lat="45.07607810157635" lon="11.822649927815702"><ele>3.0</ele><time>2026-04-07T14:31:00.001Z</time></trkpt><trkpt lat="45.076147766835795" lon="11.822749959112507"><ele>3.0</ele><time>2026-04-07T14:31:01.001Z</time></trkpt><trkpt lat="45.076220585323675" lon="11.822854784404214"><ele>3.0</ele><time>2026-04-07T14:31:02.001Z</time></trkpt><trkpt lat="45.07629380515485" lon="11.82295756033075"><ele>3.0</ele><time>2026-04-07T14:31:03.001Z</time></trkpt><trkpt lat="45.07636427989993" lon="11.82306183285087"><ele>3.0</ele><time>2026-04-07T14:31:04.001Z</time></trkpt><trkpt lat="45.07643539992909" lon="11.823166461480062"><ele>3.0</ele><time>2026-04-07T14:31:05.001Z</time></trkpt><trkpt lat="45.0765085881656" lon="11.823275022493648"><ele>3.0</ele><time>2026-04-07T14:31:06.001Z</time></trkpt><trkpt lat="45.07658315616137" lon="11.823383412538332"><ele>3.0</ele><time>2026-04-07T14:31:07.001Z</time></trkpt><trkpt lat="45.07665418932196" lon="11.823489941904509"><ele>3.0</ele><time>2026-04-07T14:31:08.001Z</time></trkpt><trkpt lat="45.07672911331138" lon="11.823599704279577"><ele>3.0</ele><time>2026-04-07T14:31:09.001Z</time></trkpt><trkpt lat="45.076807161878214" lon="11.823716576807415"><ele>2.8</ele><time>2026-04-07T14:31:10.001Z</time></trkpt><trkpt lat="45.07688320882943" lon="11.823833871064574"><ele>2.5999999999999996</ele><time>2026-04-07T14:31:11.001Z</time></trkpt><trkpt lat="45.07695646612647" lon="11.823945928974242"><ele>2.4000000000000004</ele><time>2026-04-07T14:31:12.001Z</time></trkpt><trkpt lat="45.07703249040147" lon="11.824057445260493"><ele>2.2</ele><time>2026-04-07T14:31:13.001Z</time></trkpt><trkpt lat="45.07710700143748" lon="11.824167615862125"><ele>2.0</ele><time>2026-04-07T14:31:14.001Z</time></trkpt><trkpt lat="45.07717871371275" lon="11.824275628770508"><ele>2.0</ele><time>2026-04-07T14:31:15.001Z</time></trkpt><trkpt lat="45.07732081921234" lon="11.824487668489205"><ele>2.0</ele><time>2026-04-07T14:31:17.001Z</time></trkpt><trkpt lat="45.07739810334247" lon="11.824591325166242"><ele>2.0</ele><time>2026-04-07T14:31:18.001Z</time></trkpt><trkpt lat="45.07747245138109" lon="11.824698108324935"><ele>2.0</ele><time>2026-04-07T14:31:19.002Z</time></trkpt><trkpt lat="45.07754388234161" lon="11.82480123280879"><ele>2.0</ele><time>2026-04-07T14:31:20.002Z</time></trkpt><trkpt lat="45.077612639577545" lon="11.824897627618315"><ele>2.0</ele><time>2026-04-07T14:31:21.002Z</time></trkpt><trkpt lat="45.07768036876226" lon="11.824991491332979"><ele>2.0</ele><time>2026-04-07T14:31:22.002Z</time></trkpt><trkpt lat="45.077747882447824" lon="11.82508858378431"><ele>2.0</ele><time>2026-04-07T14:31:23.002Z</time></trkpt><trkpt lat="45.07782118333515" lon="11.825191020461018"><ele>2.0</ele><time>2026-04-07T14:31:24.002Z</time></trkpt><trkpt lat="45.077896094505235" lon="11.825292705040342"><ele>2.0</ele><time>2026-04-07T14:31:24.998Z</time></trkpt><trkpt lat="45.077973531060486" lon="11.82539489916079"><ele>2.0</ele><time>2026-04-07T14:31:25.998Z</time></trkpt><trkpt lat="45.07804987555806" lon="11.82549335907522"><ele>2.0</ele><time>2026-04-07T14:31:26.998Z</time></trkpt><trkpt lat="45.07812442786174" lon="11.825582972610777"><ele>2.0</ele><time>2026-04-07T14:31:27.998Z</time></trkpt><trkpt lat="45.07820084771658" lon="11.825667650546"><ele>2.0</ele><time>2026-04-07T14:31:28.998Z</time></trkpt><trkpt lat="45.07828120502266" lon="11.825748254494266"><ele>2.2</ele><time>2026-04-07T14:31:29.998Z</time></trkpt><trkpt lat="45.07836849441985" lon="11.825824061186117"><ele>2.4000000000000004</ele><time>2026-04-07T14:31:30.998Z</time></trkpt><trkpt lat="45.07846217946068" lon="11.825895560911873"><ele>2.5999999999999996</ele><time>2026-04-07T14:31:31.998Z</time></trkpt><trkpt lat="45.078560065755276" lon="11.825963822814186"><ele>2.8</ele><time>2026-04-07T14:31:32.998Z</time></trkpt><trkpt lat="45.07865647874706" lon="11.826028726921784"><ele>3.0</ele><time>2026-04-07T14:31:33.998Z</time></trkpt><trkpt lat="45.078751094193336" lon="11.826091265634133"><ele>3.0</ele><time>2026-04-07T14:31:34.998Z</time></trkpt><trkpt lat="45.07884415025723" lon="11.826150715288483"><ele>3.0</ele><time>2026-04-07T14:31:35.998Z</time></trkpt><trkpt lat="45.078934661117266" lon="11.826209294179362"><ele>3.0</ele><time>2026-04-07T14:31:36.998Z</time></trkpt><trkpt lat="45.07902851229507" lon="11.82626706992166"><ele>3.0</ele><time>2026-04-07T14:31:37.998Z</time></trkpt><trkpt lat="45.0791203161718" lon="11.826322860658198"><ele>3.0</ele><time>2026-04-07T14:31:38.998Z</time></trkpt><trkpt lat="45.07921041534293" lon="11.826376529087728"><ele>3.2</ele><time>2026-04-07T14:31:39.999Z</time></trkpt><trkpt lat="45.079301017443235" lon="11.826430506251224"><ele>3.4</ele><time>2026-04-07T14:31:40.999Z</time></trkpt><trkpt lat="45.07939176819852" lon="11.826485505198843"><ele>3.6000000000000005</ele><time>2026-04-07T14:31:41.999Z</time></trkpt><trkpt lat="45.079482433775745" lon="11.826538459183759"><ele>3.8000000000000003</ele><time>2026-04-07T14:31:42.999Z</time></trkpt><trkpt lat="45.079566932131186" lon="11.826592500856036"><ele>4.0</ele><time>2026-04-07T14:31:43.999Z</time></trkpt><trkpt lat="45.079643406509845" lon="11.826641768211285"><ele>4.0</ele><time>2026-04-07T14:31:44.999Z</time></trkpt><trkpt lat="45.079713600926254" lon="11.82668723592276"><ele>4.0</ele><time>2026-04-07T14:31:45.999Z</time></trkpt><trkpt lat="45.07977725193228" lon="11.826729404210889"><ele>4.0</ele><time>2026-04-07T14:31:46.999Z</time></trkpt><trkpt lat="45.07987931884371" lon="11.82677251308938"><ele>4.0</ele><time>2026-04-07T14:31:48.999Z</time></trkpt><trkpt lat="45.079981252822506" lon="11.82659757851341"><ele>4.0</ele><time>2026-04-07T14:31:51.999Z</time></trkpt><trkpt lat="45.07998510482762" lon="11.826490733510132"><ele>3.9999999999999996</ele><time>2026-04-07T14:31:52.999Z</time></trkpt><trkpt lat="45.08001284504273" lon="11.82638990024232"><ele>4.0</ele><time>2026-04-07T14:31:53.999Z</time></trkpt><trkpt lat="45.080011310902314" lon="11.826262074606047"><ele>4.0</ele><time>2026-04-07T14:31:54.999Z</time></trkpt><trkpt lat="45.07999782828418" lon="11.826142987874068"><ele>4.0</ele><time>2026-04-07T14:31:55.999Z</time></trkpt><trkpt lat="45.079989799073566" lon="11.826028092876312"><ele>3.9999999999999996</ele><time>2026-04-07T14:31:56.999Z</time></trkpt><trkpt lat="45.07997406225223" lon="11.825909488587929"><ele>4.0</ele><time>2026-04-07T14:31:58Z</time></trkpt><trkpt lat="45.08000835462594" lon="11.82579173101528"><ele>3.833333333333333</ele><time>2026-04-07T14:31:59Z</time></trkpt><trkpt lat="45.0800444339291" lon="11.825675575124544"><ele>3.6666666666666665</ele><time>2026-04-07T14:32:00Z</time></trkpt><trkpt lat="45.08008815109484" lon="11.825557111604548"><ele>3.5</ele><time>2026-04-07T14:32:01Z</time></trkpt><trkpt lat="45.080126890906385" lon="11.825435516468609"><ele>3.333333333333333</ele><time>2026-04-07T14:32:02Z</time></trkpt><trkpt lat="45.080180889059704" lon="11.825331873130184"><ele>3.1666666666666665</ele><time>2026-04-07T14:32:03Z</time></trkpt><trkpt lat="45.08022689930224" lon="11.825242907727443"><ele>3.0</ele><time>2026-04-07T14:32:04Z</time></trkpt><trkpt lat="45.08028656148605" lon="11.825122513022567"><ele>2.0</ele><time>2026-04-07T14:32:06Z</time></trkpt><trkpt lat="45.080193570257315" lon="11.824978525669492"><ele>2.0</ele><time>2026-04-07T14:32:08Z</time></trkpt><trkpt lat="45.08011779064077" lon="11.82489956793918"><ele>2.0</ele><time>2026-04-07T14:32:10Z</time></trkpt><trkpt lat="45.0800522393608" lon="11.824844535468163"><ele>2.0</ele><time>2026-04-07T14:32:13Z</time></trkpt></trkseg></trk></gpx>